»·PEaware :: AAL1588 KLAX-KSFO

AAL1588 :: KLAX-KSFO

FLIGHT INFORMATION

Flight Status: Arrived
Operator:
American Airlines
More flights by this operator :: More flights under this callsign
Pilot: Jonathan O. (14851)
Aircraft: CANADAIR CL-600 CRJ-700
(CRJ7)
More flights by this aircraft type
Origin: KLAX Los Angeles Intl
United States
Destination: KSFO San Francisco Intl
United States
More flights between these airports :: More routes between these airports
Route: SUMMR2 STOKD SERFR SERFR4
File this flight plan on PilotEdge
Remarks: RMK / SIMBRIEF
Altitude:
(Current/Filed)
34,000ft
Speed:
(Current/Filed)
428kts
Departed: 29-Sep-22 02:04 PM
Arrived: 29-Sep-22 02:58 PM
Distance/Time
Traveled:
293nm/0:54
Distance/Time
To Go:
Arrived

Flight Plot

Page will automatically refresh every two minutes.

Flight plan parsing failed; only flown route is shown


Map Options




Map Legend


Flown Route
Filed Route
Departure Airport
Arrival Airport
Navaid (VOR, NDB)
Fix

Horizontal Profiles

Position Reports

Time Latitude Longitude Heading Altitude Ground
Speed
29-Sep-22 13:23 33.940336 -118.397661 85 123ft 0kts
29-Sep-22 13:24 33.940336 -118.397661 85 142ft 0kts
29-Sep-22 13:25 33.940336 -118.397661 85 142ft 0kts
29-Sep-22 13:26 33.940336 -118.397661 85 142ft 0kts
29-Sep-22 13:27 33.940336 -118.397661 85 142ft 0kts
29-Sep-22 13:28 33.940336 -118.397661 85 142ft 0kts
29-Sep-22 13:29 33.940336 -118.397661 85 142ft 0kts
29-Sep-22 13:30 33.940336 -118.397661 85 142ft 0kts
29-Sep-22 13:31 33.940336 -118.397661 85 142ft 0kts
29-Sep-22 13:32 33.940336 -118.397661 85 142ft 0kts
29-Sep-22 13:33 33.940336 -118.397661 85 142ft 0kts
29-Sep-22 13:34 33.940336 -118.397661 85 142ft 0kts
29-Sep-22 13:35 33.940336 -118.397661 85 142ft 0kts
29-Sep-22 13:36 33.940336 -118.397661 85 142ft 0kts
29-Sep-22 13:37 33.940336 -118.397661 85 142ft 0kts
29-Sep-22 13:38 33.940336 -118.397661 85 142ft 0kts
29-Sep-22 13:39 33.940336 -118.397661 85 123ft 0kts
29-Sep-22 13:40 33.940336 -118.397661 85 123ft 0kts
29-Sep-22 13:41 33.940336 -118.397661 85 123ft 0kts
29-Sep-22 13:42 33.940336 -118.397661 85 123ft 0kts
29-Sep-22 13:43 33.940336 -118.397661 85 123ft 0kts
29-Sep-22 13:44 33.940336 -118.397661 85 123ft 0kts
29-Sep-22 13:45 33.940197 -118.398224 75 120ft 2kts
29-Sep-22 13:47 33.939785 -118.398864 77 122ft 0kts
29-Sep-22 13:48 33.939785 -118.398864 77 122ft 0kts
29-Sep-22 13:49 33.939785 -118.398864 77 122ft 0kts
29-Sep-22 13:50 33.939785 -118.398864 77 122ft 0kts
29-Sep-22 13:51 33.939785 -118.398864 77 122ft 0kts
29-Sep-22 13:52 33.939785 -118.398864 77 122ft 0kts
29-Sep-22 13:53 33.939799 -118.398753 84 121ft 3kts
29-Sep-22 13:54 33.939078 -118.397115 85 123ft 8kts
29-Sep-22 13:55 33.939570 -118.392371 82 122ft 19kts
29-Sep-22 13:56 33.940261 -118.385601 82 121ft 19kts
29-Sep-22 13:57 33.940757 -118.380329 107 123ft 0kts
29-Sep-22 13:58 33.940757 -118.380329 107 123ft 0kts
29-Sep-22 13:59 33.940757 -118.380329 107 123ft 0kts
29-Sep-22 14:00 33.940757 -118.380329 107 123ft 0kts
29-Sep-22 14:01 33.940757 -118.380329 107 123ft 0kts
29-Sep-22 14:02 33.940757 -118.380329 107 123ft 0kts
29-Sep-22 14:03 33.939864 -118.380323 253 122ft 0kts
29-Sep-22 14:04 33.936545 -118.409242 259 1140ft 165kts
29-Sep-22 14:05 33.929675 -118.481028 265 3989ft 252kts
29-Sep-22 14:06 33.922944 -118.569952 264 5069ft 258kts
29-Sep-22 14:07 33.916462 -118.658952 268 7590ft 272kts
29-Sep-22 14:08 33.917313 -118.752944 269 11010ft 292kts
29-Sep-22 14:08 33.917033 -118.843417 270 12521ft 348kts
29-Sep-22 14:09 33.920728 -118.963106 273 14350ft 359kts
29-Sep-22 14:11 33.960417 -119.094140 304 16993ft 371kts
29-Sep-22 14:12 34.020623 -119.197407 317 19117ft 383kts
29-Sep-22 14:12 34.094116 -119.259393 326 20795ft 390kts
29-Sep-22 14:13 34.184303 -119.335841 324 23503ft 404kts
29-Sep-22 14:15 34.292497 -119.429403 325 25960ft 418kts
29-Sep-22 14:15 34.372266 -119.498127 325 27547ft 427kts
29-Sep-22 14:16 34.462810 -119.593329 313 29265ft 439kts
29-Sep-22 14:17 34.548153 -119.701550 315 30633ft 447kts
29-Sep-22 14:18 34.636470 -119.810049 315 31646ft 455kts
29-Sep-22 14:19 34.724696 -119.919531 314 32882ft 452kts
29-Sep-22 14:20 34.811337 -120.027215 314 33939ft 443kts
29-Sep-22 14:21 34.895913 -120.132667 314 34034ft 426kts
29-Sep-22 14:22 34.978749 -120.235940 314 34052ft 436kts
29-Sep-22 14:23 35.064587 -120.343457 313 34060ft 440kts
29-Sep-22 14:24 35.150598 -120.444226 318 34015ft 425kts
29-Sep-22 14:25 35.239862 -120.542726 317 34021ft 439kts
29-Sep-22 14:26 35.328631 -120.642734 317 34013ft 425kts
29-Sep-22 14:27 35.414791 -120.739917 317 34027ft 420kts
29-Sep-22 14:28 35.503454 -120.839064 321 34057ft 442kts
29-Sep-22 14:29 35.601169 -120.927041 323 34036ft 422kts
29-Sep-22 14:30 35.694128 -121.013926 323 34028ft 418kts
29-Sep-22 14:31 35.789320 -121.102667 322 31176ft 435kts
29-Sep-22 14:32 35.884718 -121.192216 322 29447ft 434kts
29-Sep-22 14:33 35.980331 -121.282011 322 27920ft 421kts
29-Sep-22 14:34 36.071949 -121.367939 322 26438ft 408kts
29-Sep-22 14:35 36.167828 -121.442396 327 25140ft 405kts
29-Sep-22 14:36 36.263010 -121.516646 326 23938ft 403kts
29-Sep-22 14:37 36.356684 -121.590292 326 22405ft 396kts
29-Sep-22 14:38 36.446081 -121.660609 325 20922ft 360kts
29-Sep-22 14:39 36.532377 -121.728136 326 19505ft 368kts
29-Sep-22 14:40 36.618547 -121.796475 325 17886ft 363kts
29-Sep-22 14:41 36.702941 -121.863817 324 16102ft 358kts
29-Sep-22 14:42 36.791990 -121.911220 346 13924ft 352kts
29-Sep-22 14:43 36.887874 -121.934538 344 11646ft 347kts
29-Sep-22 14:44 36.978166 -121.962272 339 10260ft 304kts
29-Sep-22 14:45 37.056467 -121.993580 338 9738ft 299kts
29-Sep-22 14:46 37.135946 -122.024925 339 9208ft 297kts
29-Sep-22 14:47 37.213494 -122.055316 339 8613ft 286kts
29-Sep-22 14:48 37.289633 -122.085317 339 7859ft 281kts
29-Sep-22 14:49 37.364156 -122.114728 340 6294ft 282kts
29-Sep-22 14:50 37.435123 -122.140078 344 4816ft 246kts
29-Sep-22 14:51 37.496211 -122.160426 343 3777ft 206kts
29-Sep-22 14:52 37.539482 -122.184515 295 2816ft 155kts
29-Sep-22 14:53 37.555653 -122.225573 300 2119ft 118kts
29-Sep-22 14:54 37.572153 -122.265051 295 1560ft 123kts
29-Sep-22 14:55 37.588715 -122.304842 299 976ft 135kts
29-Sep-22 14:56 37.606138 -122.345504 299 238ft 129kts
29-Sep-22 14:57 37.618814 -122.375295 296 16ft 23kts
29-Sep-22 14:58 37.619643 -122.377154 295 18ft 14kts
29-Sep-22 14:59 37.619626 -122.379375 228 20ft 0kts
29-Sep-22 15:00 37.619179 -122.380833 290 18ft 0kts
29-Sep-22 15:01 37.618661 -122.382202 184 17ft 8kts

Navigation Log

Ident Type
Flight plan parsing failed, navigation log unavailable